createdAt,value
2018-04-13T00:01:25.839Z,21.67
2018-04-13T00:04:29.153Z,22.67
2018-04-13T00:07:33.225Z,21.40
2018-04-13T00:10:36.534Z,25.57
2018-04-13T00:13:39.838Z,20.13
2018-04-13T00:16:43.177Z,22.13
2018-04-13T00:19:46.473Z,18.90
2018-04-13T00:22:49.789Z,20.37
2018-04-13T00:25:53.086Z,20.13
2018-04-13T00:28:56.405Z,22.83
2018-04-13T00:31:59.696Z,20.90
2018-04-13T00:35:08.714Z,23.93
2018-04-13T00:38:12.070Z,23.47
2018-04-13T00:41:15.333Z,20.50
2018-04-13T00:44:18.653Z,26.10
2018-04-13T00:47:21.949Z,24.23
2018-04-13T00:50:25.262Z,25.03
2018-04-13T00:53:30.154Z,24.90
2018-04-13T00:56:33.490Z,25.67
2018-04-13T00:59:37.556Z,25.70
2018-04-13T01:02:40.889Z,22.27
2018-04-13T01:05:44.957Z,20.30
2018-04-13T01:08:49.041Z,23.97
2018-04-13T01:11:52.344Z,23.30
2018-04-13T01:14:55.665Z,19.47
2018-04-13T01:17:58.980Z,26.97
2018-04-13T01:21:02.278Z,25.33
2018-04-13T01:24:05.597Z,23.23
2018-04-13T01:27:08.897Z,28.60
2018-04-13T01:30:12.997Z,24.53
2018-04-13T01:33:16.298Z,22.03
2018-04-13T01:36:19.621Z,26.80
2018-04-13T01:39:23.716Z,22.00
2018-04-13T01:42:27.014Z,23.03
2018-04-13T01:45:30.327Z,25.93
2018-04-13T01:48:34.389Z,23.97
2018-04-13T01:51:37.710Z,27.33
2018-04-13T01:54:41.012Z,29.07
2018-04-13T01:57:44.330Z,28.67
2018-04-13T02:00:48.424Z,24.20
2018-04-13T02:03:51.756Z,24.47
2018-04-13T02:06:55.061Z,21.80
2018-04-13T02:09:59.150Z,26.87
2018-04-13T02:13:03.233Z,27.43
2018-04-13T02:16:06.583Z,23.93
2018-04-13T02:19:09.866Z,26.03
2018-04-13T02:22:13.162Z,25.70
2018-04-13T02:25:16.477Z,26.40
2018-04-13T02:28:19.773Z,26.83
2018-04-13T02:31:23.084Z,26.80
2018-04-13T02:34:26.494Z,26.03
2018-04-13T02:37:29.722Z,24.20
2018-04-13T02:40:33.794Z,26.47
2018-04-13T02:43:37.112Z,28.83
2018-04-13T02:46:40.425Z,24.83
2018-04-13T02:49:43.749Z,25.93
2018-04-13T02:52:47.074Z,25.43
2018-04-13T02:55:50.373Z,32.43
2018-04-13T02:58:54.463Z,24.93
2018-04-13T03:01:57.768Z,22.80
2018-04-13T03:05:01.090Z,24.73
2018-04-13T03:08:04.385Z,28.63
2018-04-13T03:11:07.705Z,30.50
2018-04-13T03:14:11.005Z,25.67
2018-04-13T03:17:14.330Z,25.80
2018-04-13T03:20:17.632Z,27.47
2018-04-13T03:23:21.809Z,27.47
2018-04-13T03:26:25.143Z,26.03
2018-04-13T03:29:28.448Z,25.67
2018-04-13T03:32:31.782Z,30.47
2018-04-13T03:35:35.083Z,28.10
2018-04-13T03:38:38.421Z,30.80
2018-04-13T03:41:42.515Z,25.83
2018-04-13T03:44:45.830Z,29.13
2018-04-13T03:47:49.914Z,29.50
2018-04-13T03:50:53.240Z,27.83
2018-04-13T03:53:57.315Z,31.73
2018-04-13T03:57:00.652Z,29.10
2018-04-13T04:00:04.717Z,26.43
2018-04-13T04:03:08.046Z,37.23
2018-04-13T04:06:11.344Z,31.13
2018-04-13T04:09:14.666Z,25.87
2018-04-13T04:12:17.976Z,37.60
2018-04-13T04:15:21.297Z,34.33
2018-04-13T04:18:24.606Z,34.70
2018-04-13T04:21:45.548Z,27.40
2018-04-13T04:25:07.154Z,31.10
2018-04-13T04:28:10.453Z,29.60
2018-04-13T04:31:14.620Z,29.50
2018-04-13T04:34:17.925Z,29.73
2018-04-13T04:37:21.249Z,34.90
2018-04-13T04:40:24.549Z,32.17
2018-04-13T04:43:27.890Z,31.50
2018-04-13T04:46:31.201Z,33.07
2018-04-13T04:49:35.290Z,31.63
2018-04-13T04:52:39.362Z,27.30
2018-04-13T04:55:42.693Z,32.17
2018-04-13T04:58:46.782Z,31.93
2018-04-13T05:01:50.121Z,32.90
2018-04-13T05:04:53.450Z,31.27
2018-04-13T05:07:56.758Z,31.77
2018-04-13T05:11:00.090Z,30.03
2018-04-13T05:14:04.156Z,29.13
2018-04-13T05:17:07.486Z,35.37
2018-04-13T05:20:10.805Z,31.93
2018-04-13T05:23:14.194Z,35.27
2018-04-13T05:26:17.517Z,28.33
2018-04-13T05:29:20.899Z,33.57
2018-04-13T05:32:24.168Z,32.57
2018-04-13T05:35:27.478Z,34.00
2018-04-13T05:38:30.806Z,32.70
2018-04-13T05:41:34.133Z,28.43
2018-04-13T05:44:37.453Z,31.20
2018-04-13T05:47:40.757Z,32.23
2018-04-13T05:50:44.081Z,35.23
2018-04-13T05:53:48.174Z,31.63
2018-04-13T05:56:51.493Z,31.60
2018-04-13T05:59:54.801Z,30.70
2018-04-13T06:02:58.129Z,31.23
2018-04-13T06:06:01.472Z,39.40
2018-04-13T06:09:06.378Z,29.47
2018-04-13T06:12:09.717Z,34.50
2018-04-13T06:15:13.018Z,35.73
2018-04-13T06:18:16.333Z,33.93
2018-04-13T06:21:19.660Z,32.70
2018-04-13T06:24:23.008Z,36.00
2018-04-13T06:27:27.070Z,35.20
2018-04-13T06:30:30.369Z,35.13
2018-04-13T06:33:33.697Z,37.00
2018-04-13T06:36:37.781Z,39.13
2018-04-13T06:39:41.078Z,34.67
2018-04-13T06:42:44.397Z,31.90
2018-04-13T06:45:47.718Z,35.23
2018-04-13T06:48:51.043Z,35.10
2018-04-13T06:51:54.373Z,33.73
2018-04-13T06:54:57.673Z,30.07
2018-04-13T06:58:00.997Z,28.63
2018-04-13T07:01:05.072Z,31.97
2018-04-13T07:04:08.413Z,32.93
2018-04-13T07:07:11.718Z,34.93
2018-04-13T07:10:15.042Z,31.40
2018-04-13T07:13:18.349Z,37.60
2018-04-13T07:16:21.674Z,32.03
2018-04-13T07:19:24.973Z,35.17
2018-04-13T07:22:28.293Z,33.30
2018-04-13T07:25:31.616Z,30.47
2018-04-13T07:28:34.920Z,30.50
2018-04-13T07:31:38.243Z,31.93
2018-04-13T07:34:41.548Z,39.93
2018-04-13T07:37:44.869Z,31.67
2018-04-13T07:40:48.934Z,32.73
2018-04-13T07:43:52.456Z,33.10
2018-04-13T07:46:56.352Z,31.50
2018-04-13T07:49:59.699Z,29.87
2018-04-13T07:53:03.753Z,34.73
2018-04-13T07:56:07.071Z,36.70
2018-04-13T07:59:10.397Z,32.17
2018-04-13T08:02:14.457Z,36.70
2018-04-13T08:05:17.789Z,36.20
2018-04-13T08:08:21.092Z,33.70
2018-04-13T08:11:24.425Z,32.87
2018-04-13T08:14:27.742Z,35.50
2018-04-13T08:17:31.078Z,36.57
2018-04-13T08:20:34.408Z,36.57
2018-04-13T08:23:37.709Z,33.97
2018-04-13T08:26:41.041Z,36.03
2018-04-13T08:29:44.379Z,31.83
2018-04-13T08:32:47.672Z,36.03
2018-04-13T08:35:51.749Z,34.30
2018-04-13T08:38:55.074Z,32.53
2018-04-13T08:41:58.385Z,34.80
2018-04-13T08:45:02.477Z,29.03
2018-04-13T08:48:05.777Z,34.37
2018-04-13T08:51:09.105Z,41.50
2018-04-13T08:54:12.508Z,31.87
2018-04-13T08:57:15.761Z,34.27
2018-04-13T09:00:19.090Z,29.83
2018-04-13T09:03:22.401Z,35.37
2018-04-13T09:06:25.799Z,32.57
2018-04-13T09:09:29.057Z,31.27
2018-04-13T09:12:33.163Z,31.70
2018-04-13T09:15:36.478Z,32.97
2018-04-13T09:18:40.581Z,36.60
2018-04-13T09:21:43.908Z,33.97
2018-04-13T09:24:47.241Z,36.80
2018-04-13T09:27:50.576Z,34.10
2018-04-13T09:30:54.661Z,31.50
2018-04-13T09:33:57.997Z,35.20
2018-04-13T09:37:02.069Z,30.93
2018-04-13T09:40:05.402Z,34.33
2018-04-13T09:43:09.482Z,31.67
2018-04-13T09:46:12.848Z,30.10
2018-04-13T09:49:16.901Z,29.13
2018-04-13T09:52:20.233Z,30.87
2018-04-13T09:55:23.546Z,32.73
2018-04-13T09:58:26.868Z,31.63
2018-04-13T10:01:35.805Z,33.57
2018-04-13T10:04:40.906Z,30.07
2018-04-13T10:07:44.232Z,27.33
2018-04-13T10:10:47.566Z,26.77
2018-04-13T10:13:51.657Z,29.60
2018-04-13T10:16:54.991Z,28.57
2018-04-13T10:19:59.060Z,27.73
2018-04-13T10:23:02.389Z,28.57
2018-04-13T10:26:05.721Z,31.07
2018-04-13T10:29:09.050Z,29.67
2018-04-13T10:32:12.356Z,28.83
2018-04-13T10:35:15.688Z,30.53
2018-04-13T10:38:19.764Z,28.40
2018-04-13T10:41:23.086Z,34.30
2018-04-13T10:44:26.423Z,32.70
2018-04-13T10:47:29.757Z,29.37
2018-04-13T10:50:33.101Z,29.87
2018-04-13T10:53:37.174Z,31.53
2018-04-13T10:56:40.517Z,29.90
2018-04-13T10:59:43.833Z,34.47
2018-04-13T11:02:47.181Z,31.07
2018-04-13T11:05:50.493Z,28.00
2018-04-13T11:08:54.587Z,30.30
2018-04-13T11:11:57.897Z,32.23
2018-04-13T11:15:01.222Z,31.37
2018-04-13T11:18:04.529Z,29.47
2018-04-13T11:21:07.854Z,32.10
2018-04-13T11:24:11.178Z,29.30
2018-04-13T11:27:14.498Z,27.87
2018-04-13T11:30:17.829Z,32.60
2018-04-13T11:33:21.864Z,29.47
2018-04-13T11:36:25.194Z,28.53
2018-04-13T11:39:28.518Z,33.40
2018-04-13T11:42:31.841Z,30.47
2018-04-13T11:45:35.171Z,35.00
2018-04-13T11:48:38.501Z,26.47
2018-04-13T11:51:42.497Z,33.93
2018-04-13T11:54:46.574Z,29.73
2018-04-13T11:57:49.917Z,30.83
2018-04-13T12:00:53.249Z,30.77
2018-04-13T12:03:56.573Z,32.63
2018-04-13T12:06:59.893Z,33.97
2018-04-13T12:10:03.983Z,35.13
2018-04-13T12:13:07.329Z,38.73
2018-04-13T12:16:11.405Z,33.77
2018-04-13T12:19:14.713Z,35.37
2018-04-13T12:22:18.812Z,31.23
2018-04-13T12:25:22.121Z,31.93
2018-04-13T12:28:25.444Z,34.40
2018-04-13T12:31:28.749Z,33.47
2018-04-13T12:34:32.079Z,31.90
2018-04-13T12:37:35.410Z,38.73
2018-04-13T12:40:39.513Z,30.80
2018-04-13T12:43:42.836Z,31.57
2018-04-13T12:46:46.909Z,36.40
2018-04-13T12:49:50.236Z,33.23
2018-04-13T12:52:54.311Z,34.77
2018-04-13T12:55:57.693Z,33.57
2018-04-13T12:59:00.981Z,34.83
2018-04-13T13:02:04.314Z,36.20
2018-04-13T13:05:07.629Z,34.13
2018-04-13T13:08:10.957Z,39.27
2018-04-13T13:11:14.289Z,33.10
2018-04-13T13:14:17.614Z,35.47
2018-04-13T13:17:20.945Z,34.17
2018-04-13T13:20:24.300Z,39.10
2018-04-13T13:23:27.614Z,36.07
2018-04-13T13:26:30.945Z,33.30
2018-04-13T13:29:34.273Z,35.37
2018-04-13T13:32:37.581Z,41.20
2018-04-13T13:35:40.909Z,40.33
2018-04-13T13:38:44.982Z,37.73
2018-04-13T13:41:48.330Z,42.17
2018-04-13T13:44:52.414Z,40.87
2018-04-13T13:47:55.743Z,39.90
2018-04-13T13:50:59.848Z,39.40
2018-04-13T13:54:03.154Z,39.80
2018-04-13T13:57:07.250Z,36.80
2018-04-13T14:00:10.569Z,37.03
2018-04-13T14:03:13.910Z,38.27
2018-04-13T14:06:17.221Z,38.03
2018-04-13T14:09:20.557Z,35.20
2018-04-13T14:12:23.870Z,42.43
2018-04-13T14:15:27.193Z,40.13
2018-04-13T14:18:30.500Z,43.90
2018-04-13T14:21:33.842Z,39.03
2018-04-13T14:24:37.953Z,45.17
2018-04-13T14:27:42.049Z,41.97
2018-04-13T14:30:45.400Z,47.57
2018-04-13T14:33:48.704Z,44.07
2018-04-13T14:36:52.043Z,36.73
2018-04-13T14:39:56.123Z,38.70
2018-04-13T14:42:59.477Z,39.27
2018-04-13T14:46:02.788Z,40.40
2018-04-13T14:49:06.125Z,35.57
2018-04-13T14:52:09.446Z,43.13
2018-04-13T14:55:13.547Z,38.00
2018-04-13T14:58:16.862Z,41.63
2018-04-13T15:01:20.958Z,36.20
2018-04-13T15:04:24.269Z,36.57
2018-04-13T15:07:27.597Z,33.97
2018-04-13T15:10:31.005Z,40.90
2018-04-13T15:13:34.328Z,34.30
2018-04-13T15:16:37.649Z,39.17
2018-04-13T15:19:40.970Z,47.13
2018-04-13T15:22:45.064Z,43.43
2018-04-13T15:25:48.385Z,36.63
2018-04-13T15:28:51.738Z,38.40
2018-04-13T15:31:55.049Z,37.93
2018-04-13T15:34:58.378Z,37.53
2018-04-13T15:38:01.693Z,35.73
2018-04-13T15:41:05.023Z,35.33
2018-04-13T15:44:08.332Z,43.77
2018-04-13T15:47:11.653Z,36.23
2018-04-13T15:50:14.965Z,42.33
2018-04-13T15:53:18.285Z,43.63
2018-04-13T15:56:21.631Z,42.27
2018-04-13T15:59:24.945Z,49.30
2018-04-13T16:02:29.033Z,42.27
2018-04-13T16:05:32.366Z,41.60
2018-04-13T16:08:35.702Z,39.57
2018-04-13T16:11:39.010Z,37.13
2018-04-13T16:14:42.354Z,41.33
2018-04-13T16:17:45.678Z,42.43
2018-04-13T16:20:49.021Z,39.90
2018-04-13T16:23:52.333Z,36.70
2018-04-13T16:26:56.421Z,36.57
2018-04-13T16:29:59.770Z,41.63
2018-04-13T16:33:03.086Z,39.33
2018-04-13T16:36:06.419Z,35.20
2018-04-13T16:39:09.733Z,38.07
2018-04-13T16:42:13.841Z,41.67
2018-04-13T16:45:17.945Z,37.07
2018-04-13T16:48:21.271Z,40.43
2018-04-13T16:51:24.577Z,44.87
2018-04-13T16:54:27.906Z,36.20
2018-04-13T16:57:31.218Z,38.07
2018-04-13T17:00:34.556Z,34.73
2018-04-13T17:03:37.885Z,35.93
2018-04-13T17:06:41.202Z,37.93
2018-04-13T17:09:44.525Z,40.10
2018-04-13T17:12:48.601Z,38.27
2018-04-13T17:15:51.933Z,38.23
2018-04-13T17:18:55.244Z,43.37
2018-04-13T17:21:58.566Z,49.33
2018-04-13T17:25:01.891Z,39.37
2018-04-13T17:28:05.210Z,39.33
2018-04-13T17:31:08.534Z,56.60
2018-04-13T17:34:12.624Z,42.73
2018-04-13T17:37:15.929Z,45.43
2018-04-13T17:40:19.266Z,67.30
2018-04-13T17:43:22.569Z,57.50
2018-04-13T17:46:25.889Z,49.80
2018-04-13T17:49:29.189Z,36.60
2018-04-13T17:52:32.519Z,38.87
2018-04-13T17:55:36.607Z,53.60
2018-04-13T17:58:39.910Z,43.63
2018-04-13T18:01:43.236Z,35.27
2018-04-13T18:04:47.321Z,37.10
2018-04-13T18:07:50.648Z,39.73
2018-04-13T18:10:54.720Z,34.87
2018-04-13T18:13:58.041Z,56.67
2018-04-13T18:17:02.117Z,41.73
2018-04-13T18:20:05.438Z,38.83
2018-04-13T18:23:08.737Z,42.93
2018-04-13T18:26:12.049Z,40.27
2018-04-13T18:29:16.116Z,35.00
2018-04-13T18:32:19.445Z,43.83
2018-04-13T18:35:22.768Z,49.00
2018-04-13T18:38:26.070Z,34.93
2018-04-13T18:41:29.397Z,45.07
2018-04-13T18:44:32.699Z,77.70
2018-04-13T18:47:36.054Z,47.60
2018-04-13T18:50:40.133Z,38.50
2018-04-13T18:53:43.454Z,48.33
2018-04-13T18:56:47.524Z,36.77
2018-04-13T18:59:50.868Z,50.03
2018-04-13T19:02:54.929Z,34.00
2018-04-13T19:05:58.253Z,32.67
2018-04-13T19:09:01.573Z,49.80
2018-04-13T19:12:04.877Z,40.97
2018-04-13T19:15:08.210Z,38.00
2018-04-13T19:18:11.527Z,43.67
2018-04-13T19:21:14.874Z,42.37
2018-04-13T19:24:18.192Z,46.37
2018-04-13T19:27:21.508Z,44.63
2018-04-13T19:30:24.804Z,35.07
2018-04-13T19:33:28.132Z,29.77
2018-04-13T19:36:31.433Z,38.33
2018-04-13T19:39:34.758Z,34.23
2018-04-13T19:42:38.098Z,30.87
2018-04-13T19:45:41.400Z,44.03
2018-04-13T19:48:44.717Z,35.33
2018-04-13T19:51:48.018Z,33.47
2018-04-13T19:54:51.352Z,32.27
2018-04-13T19:57:54.693Z,38.10
2018-04-13T20:00:57.989Z,48.43
2018-04-13T20:04:01.322Z,46.43
2018-04-13T20:07:05.394Z,31.63
2018-04-13T20:10:08.709Z,58.90
2018-04-13T20:13:12.013Z,40.77
2018-04-13T20:16:21.881Z,34.90
2018-04-13T20:19:25.977Z,56.07
2018-04-13T20:22:29.287Z,42.03
2018-04-13T20:25:33.381Z,38.07
2018-04-13T20:28:36.672Z,36.10
2018-04-13T20:31:40.001Z,58.87
2018-04-13T20:34:44.071Z,77.73
2018-04-13T20:37:47.398Z,35.27
2018-04-13T20:40:51.481Z,32.63
2018-04-13T20:43:54.807Z,33.90
2018-04-13T20:46:58.901Z,33.30
2018-04-13T20:50:02.224Z,38.97
2018-04-13T20:53:06.314Z,28.93
2018-04-13T20:56:09.634Z,36.00
2018-04-13T20:59:13.726Z,32.87
2018-04-13T21:02:17.020Z,30.67
2018-04-13T21:05:20.329Z,30.90
2018-04-13T21:08:23.645Z,37.63
2018-04-13T21:11:27.725Z,36.23
2018-04-13T21:14:31.053Z,33.90
2018-04-13T21:17:35.116Z,36.70
2018-04-13T21:20:38.436Z,33.40
2018-04-13T21:23:41.750Z,37.83
2018-04-13T21:26:45.838Z,34.97
2018-04-13T21:29:49.149Z,31.53
2018-04-13T21:32:53.253Z,35.73
2018-04-13T21:35:56.581Z,30.37
2018-04-13T21:39:00.661Z,32.30
2018-04-13T21:42:03.974Z,31.57
2018-04-13T21:45:07.303Z,35.57
2018-04-13T21:48:10.630Z,31.87
2018-04-13T21:51:13.945Z,39.27
2018-04-13T21:54:17.245Z,32.97
2018-04-13T21:57:20.564Z,28.20
2018-04-13T22:00:23.869Z,30.03
2018-04-13T22:03:27.949Z,33.47
2018-04-13T22:06:31.249Z,34.17
2018-04-13T22:09:34.571Z,35.70
2018-04-13T22:12:56.430Z,31.33
2018-04-13T22:15:59.753Z,32.20
2018-04-13T22:19:03.050Z,34.07
2018-04-13T22:22:06.371Z,35.60
2018-04-13T22:25:09.688Z,34.27
2018-04-13T22:28:13.749Z,40.47
2018-04-13T22:31:17.069Z,42.17
2018-04-13T22:34:20.373Z,63.83
2018-04-13T22:37:23.714Z,45.20
2018-04-13T22:40:27.013Z,47.03
2018-04-13T22:43:30.446Z,43.70
2018-04-13T22:46:33.768Z,42.33
2018-04-13T22:49:37.081Z,41.87
2018-04-13T22:52:41.189Z,46.40
2018-04-13T22:55:44.484Z,42.67
2018-04-13T22:58:47.801Z,43.10
2018-04-13T23:01:51.886Z,40.30
2018-04-13T23:04:55.210Z,43.67
2018-04-13T23:07:58.513Z,43.40
2018-04-13T23:11:01.809Z,44.70
2018-04-13T23:14:05.896Z,40.37
2018-04-13T23:17:09.203Z,48.13
2018-04-13T23:20:13.289Z,42.70
2018-04-13T23:23:16.591Z,44.07
2018-04-13T23:26:19.909Z,45.97
2018-04-13T23:29:23.968Z,42.57
2018-04-13T23:32:27.285Z,40.67
2018-04-13T23:35:30.590Z,40.87
2018-04-13T23:38:33.908Z,43.80
2018-04-13T23:41:37.992Z,44.77
2018-04-13T23:44:41.291Z,39.70
2018-04-13T23:47:44.609Z,44.87
2018-04-13T23:50:47.907Z,35.73
2018-04-13T23:53:51.237Z,45.37
2018-04-13T23:56:54.541Z,38.17
2018-04-13T23:59:57.857Z,36.13
